Time;durP1;ratioP1;P1;durP2;ratioP2;P2;SDS_P1;SDS_P2;PMS_P1;PMS_P2;Temp;Humidity;BMP_temperature;BMP_pressure;BME280_temperature;BME280_humidity;BME280_pressure;Samples;Min_cycle;Max_cycle;Signal;HPM_P1;HPM_P2
2021/01/27 00:00:47;;;;;;;15.35;9.65;;;;;;;4.06;67.20;99664.11;1724504;83;21156;-67
2021/01/27 00:03:16;;;;;;;13.93;9.73;;;;;;;4.05;67.22;99663.27;1738873;81;21114;-66
2021/01/27 00:05:46;;;;;;;19.15;10.32;;;;;;;4.01;67.57;99644.14;1723716;83;21183;-67
2021/01/27 00:08:14;;;;;;;;;;;;;;;3.96;67.75;99640.68;1750611;81;21590;-67
2021/01/27 00:10:42;;;;;;;15.50;9.55;;;;;;;3.93;68.17;99644.98;1745456;82;20181;-66
2021/01/27 00:13:13;;;;;;;15.32;9.70;;;;;;;3.93;68.05;99658.89;1735503;81;21148;-66
2021/01/27 00:15:42;;;;;;;13.03;8.13;;;;;;;3.93;67.92;99658.01;1709518;83;21150;-67
2021/01/27 00:18:12;;;;;;;14.55;10.15;;;;;;;3.90;67.91;99670.59;1734903;82;21182;-67
2021/01/27 00:20:40;;;;;;;13.20;9.68;;;;;;;3.93;67.78;99674.93;1737483;82;21177;-66
2021/01/27 00:23:07;;;;;;;13.32;9.60;;;;;;;3.90;67.72;99665.39;1729131;82;21167;-66
2021/01/27 00:25:36;;;;;;;13.90;9.75;;;;;;;3.91;67.82;99657.13;1707704;83;21614;-66
2021/01/27 00:28:06;;;;;;;19.17;10.03;;;;;;;3.92;68.24;99653.66;1736380;82;21194;-66
2021/01/27 00:30:39;;;;;;;12.97;9.33;;;;;;;3.95;67.83;99651.07;1724964;82;21162;-66
2021/01/27 00:33:09;;;;;;;13.93;10.30;;;;;;;3.92;67.76;99647.16;1714172;82;21893;-66
2021/01/27 00:35:39;;;;;;;13.48;8.93;;;;;;;3.92;67.84;99656.27;1718349;82;21590;-65
2021/01/27 00:38:13;;;;;;;13.48;9.43;;;;;;;3.93;67.69;99660.20;1737391;82;21139;-66
2021/01/27 00:40:41;;;;;;;15.25;10.03;;;;;;;3.92;67.76;99661.06;1737075;82;21169;-66
2021/01/27 00:43:10;;;;;;;13.80;10.43;;;;;;;3.99;67.60;99657.58;1701231;82;21607;-65
2021/01/27 00:45:37;;;;;;;16.57;10.13;;;;;;;4.01;67.52;99657.61;1713099;83;21559;-65
2021/01/27 00:48:06;;;;;;;11.73;8.55;;;;;;;3.94;67.76;99658.03;1779154;81;21558;-66
2021/01/27 00:50:35;;;;;;;14.55;10.60;;;;;;;3.92;67.93;99658.87;1777447;81;21566;-66
2021/01/27 00:53:04;;;;;;;15.53;9.58;;;;;;;3.83;68.23;99659.72;1750180;80;21589;-64
2021/01/27 00:55:33;;;;;;;12.68;8.60;;;;;;;3.83;68.31;99663.63;1748343;82;21216;-64
2021/01/27 00:58:01;;;;;;;13.15;9.20;;;;;;;3.81;68.37;99661.00;1773219;81;21595;-66
2021/01/27 01:00:33;;;;;;;14.23;9.70;;;;;;;3.82;68.58;99661.88;1759240;80;21106;-65
2021/01/27 01:03:05;;;;;;;13.40;9.23;;;;;;;3.76;71.56;99648.84;1774298;81;21586;-66
2021/01/27 01:05:35;;;;;;;;;;;;;;;3.76;69.17;99641.03;1781400;81;21131;-66
2021/01/27 01:08:05;;;;;;;12.28;8.15;;;;;;;3.73;69.11;99641.91;1732815;82;20286;-66
2021/01/27 01:10:35;;;;;;;;;;;;;;;3.70;70.95;99640.59;1768066;81;21601;-66
2021/01/27 01:13:04;;;;;;;13.15;9.43;;;;;;;3.69;70.69;99636.25;1773588;81;20467;-66
2021/01/27 01:15:32;;;;;;;13.38;9.40;;;;;;;3.68;70.54;99631.45;1772601;80;21578;-66
2021/01/27 01:18:00;;;;;;;15.80;9.95;;;;;;;3.65;70.57;99630.59;1761454;81;21551;-63
2021/01/27 01:20:29;;;;;;;13.75;8.90;;;;;;;3.62;70.32;99620.16;1734724;82;21172;-66
2021/01/27 01:22:59;;;;;;;12.15;8.28;;;;;;;3.62;70.56;99621.02;1778513;80;21139;-66
2021/01/27 01:25:32;;;;;;;13.18;8.73;;;;;;;3.63;70.59;99614.09;1779537;81;21158;-62
2021/01/27 01:28:00;;;;;;;15.85;10.63;;;;;;;3.65;70.64;99614.97;1769375;81;21147;-63
2021/01/27 01:30:31;;;;;;;12.88;8.68;;;;;;;3.67;70.25;99608.05;1773659;81;21131;-63
2021/01/27 01:33:03;;;;;;;14.53;8.75;;;;;;;3.62;70.14;99611.05;1740228;82;21183;-67
2021/01/27 01:35:31;;;;;;;13.15;9.18;;;;;;;3.61;70.04;99611.92;1747063;81;21151;-66
2021/01/27 01:37:59;;;;;;;14.87;10.05;;;;;;;3.61;69.98;99609.31;1755717;81;21166;-66
2021/01/27 01:40:32;;;;;;;16.23;9.50;;;;;;;3.46;70.31;99605.78;1778832;81;21187;-66
2021/01/27 01:43:21;;;;;;;11.95;8.45;;;;;;;3.50;70.17;99601.48;1781896;80;21127;-62
2021/01/27 01:46:02;;;;;;;10.98;8.10;;;;;;;3.47;70.14;99596.26;1772401;80;21139;-66
2021/01/27 01:49:00;;;;;;;13.85;9.18;;;;;;;3.51;69.93;99601.91;1782632;80;21118;-67
2021/01/27 01:51:33;;;;;;;13.70;9.08;;;;;;;3.50;69.94;99595.83;1784521;80;21198;-63
2021/01/27 01:54:05;;;;;;;14.35;9.28;;;;;;;3.50;69.95;99593.67;1779797;80;21126;-62
2021/01/27 01:56:35;;;;;;;12.28;8.13;;;;;;;3.47;69.76;99596.26;1784404;80;21107;-66
2021/01/27 01:59:06;;;;;;;12.55;8.93;;;;;;;3.44;69.86;99593.64;1781556;80;21126;-65
2021/01/27 02:01:34;;;;;;;11.93;8.78;;;;;;;3.45;69.85;99588.87;1782095;80;21163;-66
2021/01/27 02:04:03;;;;;;;12.18;8.48;;;;;;;3.50;69.65;99578.06;1779738;80;21151;-66
2021/01/27 02:06:30;;;;;;;13.08;9.15;;;;;;;3.52;69.50;99577.63;1783666;80;21152;-62
2021/01/27 02:08:59;;;;;;;15.78;9.80;;;;;;;3.51;69.48;99573.30;1784373;80;21174;-66
2021/01/27 02:11:40;;;;;;;13.80;9.68;;;;;;;3.49;69.50;99571.12;1781145;80;21138;-67
2021/01/27 02:14:24;;;;;;;13.98;8.83;;;;;;;3.47;69.40;99569.80;1784412;80;21119;-66
2021/01/27 02:17:03;;;;;;;14.65;9.53;;;;;;;3.46;69.38;99572.41;1726828;80;21155;-66
2021/01/27 02:20:09;;;;;;;14.73;9.53;;;;;;;3.44;69.52;99571.53;1784046;80;21163;-62
2021/01/27 02:23:05;;;;;;;15.05;9.40;;;;;;;3.47;69.51;99571.09;1738597;82;21174;-65
2021/01/27 02:25:54;;;;;;;14.85;8.83;;;;;;;3.48;70.14;99566.78;1766262;80;21272;-66
2021/01/27 02:29:09;;;;;;;16.20;10.28;;;;;;;3.46;69.58;99561.55;1748268;80;21301;-61
2021/01/27 02:31:42;;;;;;;12.30;8.85;;;;;;;3.49;69.44;99549.85;1770631;80;21276;-61
2021/01/27 02:34:33;;;;;;;13.58;9.85;;;;;;;3.44;69.53;99550.27;1745523;82;21154;-66
2021/01/27 02:37:04;;;;;;;13.00;8.78;;;;;;;3.44;69.43;99555.47;1768887;80;21123;-66
2021/01/27 02:39:33;;;;;;;15.20;9.43;;;;;;;3.40;69.68;99546.80;1780941;80;21161;-66
2021/01/27 02:42:06;;;;;;;15.03;10.82;;;;;;;3.44;69.52;99551.56;1768980;80;21527;-67
2021/01/27 02:44:45;;;;;;;12.47;9.20;;;;;;;3.46;69.47;99544.64;1786818;80;21301;-66
2021/01/27 02:47:17;;;;;;;15.13;9.85;;;;;;;3.48;69.31;99538.16;1770294;80;21159;-61
2021/01/27 02:49:55;;;;;;;12.88;9.40;;;;;;;3.45;69.55;99542.05;1780232;80;21269;-61
2021/01/27 02:52:40;;;;;;;15.65;10.48;;;;;;;3.38;69.74;99535.93;1775893;80;21300;-61
2021/01/27 02:55:20;;;;;;;13.88;9.48;;;;;;;3.45;70.43;99538.14;1784089;80;21312;-66
2021/01/27 02:58:05;;;;;;;16.48;10.25;;;;;;;3.42;69.94;99546.79;1783241;80;21107;-60
2021/01/27 03:00:36;;;;;;;15.13;10.15;;;;;;;3.42;69.83;99550.27;1756111;82;21281;-61
2021/01/27 03:03:19;;;;;;;15.20;9.80;;;;;;;3.43;69.86;99547.23;1720354;82;21175;-60
2021/01/27 03:05:50;;;;;;;14.68;10.48;;;;;;;3.44;69.79;99545.51;1753743;80;21102;-66
2021/01/27 03:08:27;;;;;;;12.58;8.58;;;;;;;3.45;69.82;99538.14;1785061;80;21205;-60
2021/01/27 03:11:07;;;;;;;16.48;10.45;;;;;;;3.42;69.91;99529.47;1779306;80;21147;-60
2021/01/27 03:13:36;;;;;;;17.98;11.20;;;;;;;3.44;69.85;99518.20;1753283;80;21147;-60
2021/01/27 03:16:07;;;;;;;14.93;10.03;;;;;;;3.40;70.32;99505.59;1765892;80;21191;-66
2021/01/27 03:18:40;;;;;;;16.20;11.30;;;;;;;3.35;77.89;99502.10;1755346;80;21273;-60
2021/01/27 03:21:12;;;;;;;16.17;11.08;;;;;;;3.35;77.15;99506.00;1783565;80;21146;-60
2021/01/27 03:23:48;;;;;;;14.20;9.80;;;;;;;3.38;71.48;99488.69;1787069;80;21312;-66
2021/01/27 03:26:33;;;;;;;15.90;11.38;;;;;;;3.39;70.63;99486.94;1782977;80;21261;-60
2021/01/27 03:29:41;;;;;;;13.70;9.78;;;;;;;3.38;70.61;99497.80;1786899;80;21162;-66
2021/01/27 03:32:17;;;;;;;15.13;10.18;;;;;;;3.34;70.49;99492.15;1786742;80;21138;-66
2021/01/27 03:34:55;;;;;;;12.90;9.38;;;;;;;3.35;70.71;99480.88;1814246;77;22179;-58
2021/01/27 03:37:36;;;;;;;15.28;9.43;;;;;;;3.30;70.81;99482.59;1762793;80;21122;-67
2021/01/27 03:40:07;;;;;;;18.23;10.90;;;;;;;3.29;70.69;99480.00;1774199;80;21143;-60
2021/01/27 03:42:52;;;;;;;18.25;10.55;;;;;;;3.26;70.60;99484.75;1751449;80;21656;-60
2021/01/27 03:45:21;;;;;;;14.38;9.65;;;;;;;3.26;70.60;99485.63;1763836;80;21188;-68
2021/01/27 03:48:11;;;;;;;16.27;10.15;;;;;;;3.26;70.75;99494.73;1776332;80;21154;-58
2021/01/27 03:50:38;;;;;;;13.30;9.20;;;;;;;3.21;70.79;99492.96;1778336;80;21595;-59
2021/01/27 03:53:10;;;;;;;16.37;10.90;;;;;;;3.25;70.62;99489.52;1770356;80;21217;-66
2021/01/27 03:56:16;;;;;;;13.28;9.08;;;;;;;3.25;70.64;99492.11;1766274;80;21172;-63
2021/01/27 03:58:47;;;;;;;14.28;9.75;;;;;;;3.24;70.53;99491.26;1793035;79;21167;-59
2021/01/27 04:01:17;;;;;;;13.50;9.10;;;;;;;3.24;71.07;99489.95;1788071;80;21142;-67
2021/01/27 04:03:45;;;;;;;15.35;9.50;;;;;;;3.23;71.09;99496.02;1762788;80;21155;-67
2021/01/27 04:06:13;;;;;;;13.98;9.03;;;;;;;3.23;71.03;99497.73;1764449;80;21301;-59
2021/01/27 04:08:40;;;;;;;15.25;9.05;;;;;;;3.23;71.10;99483.02;1761901;81;21174;-59
2021/01/27 04:11:08;;;;;;;13.65;9.55;;;;;;;3.10;71.18;99479.48;1766365;80;21566;-67
2021/01/27 04:13:36;;;;;;;16.90;10.40;;;;;;;3.13;71.37;99479.94;1762236;80;21135;-60
2021/01/27 04:16:04;;;;;;;16.30;10.55;;;;;;;3.11;71.31;99486.42;1766953;80;21126;-59
2021/01/27 04:18:32;;;;;;;14.78;9.75;;;;;;;3.17;71.20;99488.61;1793399;80;21609;-67
2021/01/27 04:21:00;;;;;;;13.00;8.90;;;;;;;3.17;71.33;99489.91;1768858;80;21282;-66
2021/01/27 04:23:27;;;;;;;15.25;10.98;;;;;;;3.17;71.48;99476.91;1770842;80;21277;-59
2021/01/27 04:25:55;;;;;;;18.05;13.45;;;;;;;3.17;71.68;99473.89;1792273;80;21123;-67
2021/01/27 04:28:22;;;;;;;15.08;10.80;;;;;;;3.19;71.81;99474.77;1789286;80;21142;-59
2021/01/27 04:30:50;;;;;;;16.65;11.38;;;;;;;3.16;72.29;99478.66;1766700;79;21166;-66
2021/01/27 04:33:18;;;;;;;16.05;10.58;;;;;;;3.16;72.19;99473.45;1772745;80;21169;-61
2021/01/27 04:35:46;;;;;;;17.00;11.12;;;;;;;3.11;71.96;99463.02;1771698;80;21126;-59
2021/01/27 04:38:13;;;;;;;15.48;10.63;;;;;;;3.15;72.46;99474.31;1768654;80;21621;-59
2021/01/27 04:40:43;;;;;;;12.45;8.48;;;;;;;3.13;72.03;99474.74;1765984;80;21196;-59
2021/01/27 04:43:30;;;;;;;16.12;9.00;;;;;;;3.13;72.07;99479.94;1776396;79;21598;-58
2021/01/27 04:46:21;;;;;;;17.52;10.60;;;;;;;3.13;72.11;99470.84;1775244;81;21138;-65
2021/01/27 04:49:04;;;;;;;14.13;10.05;;;;;;;3.11;73.12;99456.97;1756793;80;21146;-66
2021/01/27 04:52:12;;;;;;;13.65;9.53;;;;;;;3.10;72.65;99463.88;1779918;80;21130;-65
2021/01/27 04:55:07;;;;;;;14.30;8.48;;;;;;;3.10;72.40;99466.48;1781633;80;21184;-58
2021/01/27 04:57:55;;;;;;;14.78;9.23;;;;;;;3.18;72.10;99465.23;1763028;80;21140;-64
2021/01/27 05:00:47;;;;;;;16.48;10.58;;;;;;;3.11;72.32;99464.77;1765134;80;21153;-65
2021/01/27 05:03:20;;;;;;;15.70;9.55;;;;;;;3.10;72.23;99458.68;1761678;81;21187;-65
2021/01/27 05:05:53;;;;;;;12.75;8.78;;;;;;;3.12;72.23;99451.75;1767502;80;21183;-63
2021/01/27 05:08:34;;;;;;;17.17;9.90;;;;;;;3.19;72.28;99444.86;1777041;80;21170;-59
2021/01/27 05:11:07;;;;;;;14.23;9.30;;;;;;;3.22;72.12;99442.27;1772773;80;21580;-64
2021/01/27 05:13:38;;;;;;;15.00;9.68;;;;;;;3.18;72.09;99438.34;1775864;80;21301;-59
2021/01/27 05:16:23;;;;;;;13.25;8.68;;;;;;;3.14;72.13;99425.77;1778359;79;21102;-64
2021/01/27 05:18:52;;;;;;;12.65;9.08;;;;;;;3.08;80.35;99442.23;1768740;80;21135;-59
2021/01/27 05:21:50;;;;;;;14.25;9.60;;;;;;;3.03;73.50;99440.05;1777923;80;21126;-64
2021/01/27 05:24:22;;;;;;;14.03;9.18;;;;;;;3.08;73.14;99432.25;1810358;77;22534;-61
2021/01/27 05:27:18;;;;;;;15.68;9.88;;;;;;;3.02;73.05;99436.13;1753571;80;21162;-57
2021/01/27 05:29:56;;;;;;;14.07;9.53;;;;;;;3.03;73.37;99439.16;1759670;80;21325;-58
2021/01/27 05:35:01;;;;;;;15.43;9.55;;;;;;;3.02;73.83;99422.71;1798583;77;22163;-61
2021/01/27 05:37:34;;;;;;;16.75;9.08;;;;;;;2.92;74.41;99416.59;1726414;81;21145;-61
2021/01/27 05:40:13;;;;;;;15.32;9.98;;;;;;;3.11;74.53;99422.72;1757665;81;21130;-63
2021/01/27 05:42:40;;;;;;;12.82;8.68;;;;;;;3.10;74.22;99415.78;1724769;81;21162;-63
2021/01/27 05:45:46;;;;;;;19.05;9.65;;;;;;;3.08;75.18;99420.14;1757450;81;21170;-64
2021/01/27 05:48:32;;;;;;;14.68;9.13;;;;;;;3.11;75.44;99421.86;1757111;81;21154;-59
2021/01/27 05:51:11;;;;;;;14.38;9.80;;;;;;;3.16;75.44;99421.45;1749242;81;21158;-58
2021/01/27 05:53:39;;;;;;;15.85;9.93;;;;;;;3.18;75.13;99422.32;1723875;83;21168;-60
2021/01/27 05:56:27;;;;;;;16.35;9.15;;;;;;;3.19;74.97;99426.66;1725515;82;21231;-62
2021/01/27 05:59:04;;;;;;;15.45;10.05;;;;;;;3.24;74.54;99417.55;1735196;83;21300;-63
2021/01/27 06:01:42;;;;;;;20.08;10.43;;;;;;;3.26;74.37;99413.22;1727886;82;21127;-60
2021/01/27 06:04:23;;;;;;;18.60;10.70;;;;;;;3.29;74.40;99419.73;1721290;83;21182;-59
2021/01/27 06:07:05;;;;;;;15.03;9.88;;;;;;;3.34;74.28;99412.81;1724648;82;21122;-60
2021/01/27 06:09:46;;;;;;;16.73;8.95;;;;;;;3.40;74.09;99408.92;1729286;82;21515;-60
2021/01/27 06:12:25;;;;;;;16.50;10.28;;;;;;;3.33;74.05;99410.19;1730973;82;21330;-61
2021/01/27 06:15:11;;;;;;;14.40;9.00;;;;;;;3.32;73.98;99410.64;1722514;83;21122;-63
2021/01/27 06:17:49;;;;;;;14.20;9.60;;;;;;;3.26;73.46;99412.80;1723427;82;21562;-64
2021/01/27 06:20:32;;;;;;;13.28;9.10;;;;;;;3.21;73.39;99408.02;1725062;82;21127;-62
2021/01/27 06:23:23;;;;;;;13.20;8.87;;;;;;;3.11;73.29;99404.52;1736765;82;21127;-64
2021/01/27 06:26:17;;;;;;;13.43;8.68;;;;;;;3.11;73.29;99404.52;1750473;82;22015;-64
2021/01/27 06:29:27;;;;;;;15.72;8.68;;;;;;;3.09;73.66;99398.44;1730642;82;21613;-62
2021/01/27 06:32:11;;;;;;;13.43;9.13;;;;;;;3.12;75.16;99401.05;1695883;84;21641;-63
2021/01/27 06:34:56;;;;;;;13.13;9.28;;;;;;;3.08;73.78;99388.05;1816274;77;22213;-62
2021/01/27 06:37:43;;;;;;;13.22;9.03;;;;;;;3.13;73.74;99389.78;1751479;81;21139;-64
2021/01/27 06:40:42;;;;;;;12.85;8.75;;;;;;;3.21;73.69;99394.14;1698308;84;21190;-64
2021/01/27 06:44:00;;;;;;;14.38;9.05;;;;;;;3.27;73.72;99390.25;1682518;83;21190;-66
2021/01/27 06:46:42;;;;;;;13.28;8.50;;;;;;;3.13;74.16;99386.33;1702895;84;21203;-64
2021/01/27 06:49:43;;;;;;;13.25;8.30;;;;;;;3.15;74.10;99375.50;1708043;84;21139;-63
2021/01/27 06:52:34;;;;;;;12.05;8.55;;;;;;;3.25;73.44;99365.55;1704362;82;21534;-65
2021/01/27 06:55:35;;;;;;;14.33;9.10;;;;;;;3.16;73.77;99366.84;1692235;84;21157;-65
2021/01/27 06:58:31;;;;;;;13.98;9.25;;;;;;;3.15;73.74;99365.52;1703780;83;21764;-65
2021/01/27 07:01:38;;;;;;;13.90;9.28;;;;;;;3.14;73.74;99363.37;1700258;82;21153;-66
2021/01/27 07:04:36;;;;;;;14.18;9.13;;;;;;;3.17;73.45;99359.89;1717042;82;21166;-64
2021/01/27 07:07:37;;;;;;;13.78;9.18;;;;;;;3.14;73.27;99358.17;1707806;84;21123;-65
2021/01/27 07:10:29;;;;;;;13.22;7.97;;;;;;;3.16;73.23;99357.73;1708008;84;21147;-64
2021/01/27 07:13:05;;;;;;;13.72;8.88;;;;;;;3.18;73.25;99356.42;1723974;82;21157;-65
2021/01/27 07:15:38;;;;;;;12.63;8.48;;;;;;;3.27;72.91;99357.33;1730465;82;21162;-65
2021/01/27 07:18:37;;;;;;;15.40;9.70;;;;;;;3.19;72.92;99356.44;1737265;82;21193;-64
2021/01/27 07:21:11;;;;;;;12.65;7.83;;;;;;;3.33;72.42;99348.65;1702066;82;21146;-65
2021/01/27 07:24:02;;;;;;;13.50;9.23;;;;;;;3.29;72.42;99348.66;1705663;82;21309;-66
2021/01/27 07:26:41;;;;;;;12.33;8.38;;;;;;;3.18;72.63;99352.52;1707777;84;21338;-64
2021/01/27 07:29:22;;;;;;;14.33;9.05;;;;;;;3.08;73.00;99339.95;1708321;82;21170;-63
2021/01/27 07:32:06;;;;;;;11.97;8.80;;;;;;;3.08;73.01;99349.05;1702368;84;21562;-68
2021/01/27 07:34:57;;;;;;;13.22;8.58;;;;;;;3.07;72.92;99341.70;1667908;85;21139;-67
2021/01/27 07:37:48;;;;;;;11.35;8.05;;;;;;;3.06;72.92;99341.27;1665152;85;21195;-63
2021/01/27 07:40:29;;;;;;;14.75;9.30;;;;;;;3.27;72.32;99334.33;1699767;83;21305;-65
2021/01/27 07:43:07;;;;;;;13.50;10.40;;;;;;;3.30;72.08;99334.78;1692895;84;21173;-66
2021/01/27 07:45:38;;;;;;;16.57;10.45;;;;;;;3.19;72.61;99330.85;1658039;85;21163;-61
2021/01/27 07:48:20;;;;;;;16.02;10.30;;;;;;;3.08;73.11;99321.33;1686078;83;21198;-66
2021/01/27 07:50:55;;;;;;;13.30;9.55;;;;;;;3.19;73.35;99329.14;1687759;85;21727;-62
2021/01/27 07:53:35;;;;;;;13.18;9.03;;;;;;;3.30;73.17;99323.94;1684352;83;21613;-66
2021/01/27 07:56:20;;;;;;;15.10;9.53;;;;;;;3.40;72.87;99326.09;1681871;85;21220;-65
2021/01/27 07:59:16;;;;;;;13.35;9.13;;;;;;;3.39;72.48;99326.96;1681202;83;21171;-66
2021/01/27 08:01:48;;;;;;;15.85;9.45;;;;;;;3.51;71.81;99323.52;1745140;82;21142;-65
2021/01/27 08:04:43;;;;;;;13.72;9.05;;;;;;;3.57;71.50;99320.88;1746596;82;21179;-65
2021/01/27 08:07:21;;;;;;;12.90;8.55;;;;;;;3.61;71.37;99325.22;1731458;81;21316;-65
2021/01/27 08:09:48;;;;;;;12.13;8.28;;;;;;;3.59;71.33;99328.25;1718511;83;21539;-65
2021/01/27 08:12:28;;;;;;;13.48;8.88;;;;;;;3.57;71.34;99325.67;1735354;82;21157;-64
2021/01/27 08:15:11;;;;;;;10.78;7.53;;;;;;;3.59;71.30;99333.91;1736639;81;21186;-63
2021/01/27 08:17:59;;;;;;;12.20;8.08;;;;;;;3.53;71.12;99319.17;1684630;83;21183;-62
2021/01/27 08:20:34;;;;;;;11.80;8.68;;;;;;;3.53;73.54;99337.39;1734190;82;21213;-66
2021/01/27 08:23:08;;;;;;;14.25;8.80;;;;;;;3.64;72.62;99330.87;1748049;82;21278;-65
2021/01/27 08:26:00;;;;;;;14.07;8.33;;;;;;;3.71;72.64;99337.36;1723533;81;21285;-66
2021/01/27 08:28:39;;;;;;;13.55;8.70;;;;;;;3.77;72.37;99329.11;1718760;83;21214;-65
2021/01/27 08:31:13;;;;;;;13.05;8.48;;;;;;;3.78;72.52;99326.49;1714487;83;21337;-66
2021/01/27 08:33:50;;;;;;;12.10;8.63;;;;;;;3.74;72.09;99338.23;1722181;83;21217;-68
2021/01/27 08:36:35;;;;;;;11.35;7.80;;;;;;;3.69;72.03;99343.45;1722658;81;21638;-64
2021/01/27 08:39:07;;;;;;;13.90;8.43;;;;;;;3.62;71.68;99344.31;1753588;81;21111;-65
2021/01/27 08:41:54;;;;;;;13.18;8.98;;;;;;;3.53;71.82;99351.70;1727123;82;21570;-64
2021/01/27 08:44:28;;;;;;;13.62;8.50;;;;;;;3.46;71.87;99328.70;1754139;81;21273;-65
2021/01/27 08:47:36;;;;;;;17.95;9.05;;;;;;;3.39;72.59;99336.95;1770117;81;21147;-65
2021/01/27 08:50:11;;;;;;;13.25;7.35;;;;;;;3.41;72.03;99351.23;1731327;82;21655;-65
2021/01/27 08:52:42;;;;;;;12.78;8.03;;;;;;;3.45;71.98;99337.37;1696372;84;21158;-65
2021/01/27 08:55:34;;;;;;;12.55;8.10;;;;;;;3.45;72.28;99339.13;1678968;85;21603;-66
2021/01/27 09:01:35;;;;;;;19.15;12.37;;;;;;;3.54;72.23;99328.27;1805771;77;28096;-63
2021/01/27 09:04:04;;;;;;;14.05;8.60;;;;;;;3.57;72.05;99331.29;1678798;85;21657;-65
2021/01/27 09:06:42;;;;;;;12.00;8.23;;;;;;;3.57;71.93;99332.17;1683512;84;21604;-64
2021/01/27 09:09:27;;;;;;;19.55;11.18;;;;;;;3.55;71.65;99323.91;1706185;82;21292;-66
2021/01/27 09:12:00;;;;;;;12.78;8.23;;;;;;;3.46;74.99;99318.30;1716566;83;21182;-65
2021/01/27 09:14:30;;;;;;;12.60;7.40;;;;;;;3.43;72.89;99316.99;1716665;82;21636;-66
2021/01/27 09:16:59;;;;;;;12.15;7.97;;;;;;;3.43;80.33;99303.98;1717025;83;21700;-66
2021/01/27 09:19:31;;;;;;;12.18;7.47;;;;;;;3.37;82.74;99300.08;1703236;83;21213;-65
2021/01/27 09:22:06;;;;;;;11.28;6.90;;;;;;;3.44;73.86;99294.02;1674047;83;21226;-66
2021/01/27 09:24:44;;;;;;;10.38;7.22;;;;;;;3.40;73.20;99285.36;1703129;83;21197;-65
2021/01/27 09:27:23;;;;;;;10.13;6.67;;;;;;;3.39;78.01;99276.23;1714824;83;21189;-66
2021/01/27 09:29:59;;;;;;;11.10;7.80;;;;;;;3.27;74.15;99276.70;1708434;82;21173;-65
2021/01/27 09:32:27;;;;;;;15.18;8.33;;;;;;;3.33;74.08;99268.02;1704514;83;21601;-65
2021/01/27 09:34:55;;;;;;;20.92;12.95;;;;;;;3.35;73.64;99257.17;1670019;84;21195;-65
2021/01/27 09:37:27;;;;;;;31.12;23.85;;;;;;;3.36;73.26;99269.31;1684512;83;21170;-66
2021/01/27 09:39:57;;;;;;;;;;;;;;;3.36;73.45;99262.81;1673513;85;21189;-66
2021/01/27 09:42:28;;;;;;;21.85;16.93;;;;;;;3.33;73.58;99253.70;1702161;83;20259;-66
2021/01/27 09:45:01;;;;;;;31.68;23.32;;;;;;;3.29;73.72;99249.38;1714090;82;21170;-66
2021/01/27 09:47:29;;;;;;;38.42;30.40;;;;;;;3.16;74.56;99251.54;1713743;83;21161;-66
2021/01/27 09:49:58;;;;;;;17.73;13.80;;;;;;;3.18;74.64;99248.51;1703913;83;21192;-66
2021/01/27 09:52:26;;;;;;;14.65;10.53;;;;;;;3.16;74.46;99245.04;1704183;84;21339;-65
2021/01/27 09:55:00;;;;;;;13.93;9.70;;;;;;;3.18;74.42;99240.70;1704468;83;21181;-66
2021/01/27 09:57:28;;;;;;;14.03;10.48;;;;;;;3.16;74.58;99230.32;1697951;84;21170;-65
2021/01/27 09:59:56;;;;;;;52.05;32.83;;;;;;;3.16;74.48;99225.13;1698528;83;21186;-64
2021/01/27 10:02:35;;;;;;;16.65;11.68;;;;;;;3.16;75.88;99219.03;1695494;84;21614;-65
2021/01/27 10:05:24;;;;;;;13.13;9.40;;;;;;;3.32;74.49;99215.98;1703723;83;21182;-66
2021/01/27 10:07:51;;;;;;;12.00;8.83;;;;;;;3.19;74.19;99201.72;1681124;85;21165;-64
2021/01/27 10:10:19;;;;;;;13.80;9.10;;;;;;;3.24;73.90;99198.67;1681411;84;21173;-65
2021/01/27 10:12:49;;;;;;;10.15;7.20;;;;;;;3.23;74.10;99193.46;1683548;84;21197;-65
2021/01/27 10:15:34;;;;;;;15.45;12.13;;;;;;;3.25;74.32;99195.21;1624405;85;21140;-66
2021/01/27 10:18:09;;;;;;;24.27;19.23;;;;;;;3.24;73.87;99188.28;1696935;84;21177;-64
2021/01/27 10:20:39;;;;;;;31.35;21.52;;;;;;;3.17;74.26;99183.06;1694577;83;21205;-64
2021/01/27 10:23:12;;;;;;;18.45;13.48;;;;;;;3.11;74.46;99180.91;1697215;84;21634;-68
2021/01/27 10:25:44;;;;;;;23.50;19.80;;;;;;;3.10;74.58;99180.47;1691471;83;21093;-65
2021/01/27 10:28:23;;;;;;;17.80;15.10;;;;;;;3.17;74.12;99177.45;1707518;83;21593;-67
2021/01/27 10:30:59;;;;;;;13.75;10.90;;;;;;;3.15;74.42;99170.08;1708869;82;21303;-67
2021/01/27 10:36:35;;;;;;;14.45;10.48;;;;;;;3.11;77.52;99164.45;1804312;77;22174;-67
2021/01/27 10:39:25;;;;;;;12.50;8.78;;;;;;;3.09;75.43;99154.03;1754793;81;21589;-65
2021/01/27 10:42:10;;;;;;;13.30;9.75;;;;;;;3.13;74.63;99162.27;1761990;81;21142;-63
2021/01/27 10:44:40;;;;;;;13.88;11.22;;;;;;;3.05;74.80;99152.75;1759130;81;21150;-63
2021/01/27 10:47:14;;;;;;;17.37;11.12;;;;;;;3.16;74.56;99156.21;1755865;81;21166;-67
2021/01/27 10:49:47;;;;;;;14.23;9.90;;;;;;;3.18;75.14;99145.80;1752802;81;21190;-67
2021/01/27 10:52:20;;;;;;;15.80;9.60;;;;;;;3.23;74.58;99146.23;1754444;81;21147;-65
2021/01/27 10:54:50;;;;;;;12.18;8.53;;;;;;;3.23;74.58;99148.84;1761992;80;21182;-64
2021/01/27 10:57:19;;;;;;;10.48;6.97;;;;;;;3.21;74.50;99153.17;1755461;81;21573;-67
2021/01/27 10:59:46;;;;;;;13.62;8.73;;;;;;;3.21;74.99;99143.19;1728492;83;21126;-64
2021/01/27 11:02:14;;;;;;;21.02;16.00;;;;;;;3.22;75.30;99137.12;1724136;83;21173;-64
2021/01/27 11:04:42;;;;;;;18.95;10.35;;;;;;;3.21;74.90;99126.28;1727196;83;21199;-63
2021/01/27 11:07:10;;;;;;;13.60;9.58;;;;;;;3.27;75.08;99119.77;1705404;84;21161;-64
2021/01/27 11:09:38;;;;;;;18.80;13.25;;;;;;;3.30;75.01;99115.02;1716127;83;21174;-67
2021/01/27 11:12:06;;;;;;;40.08;29.07;;;;;;;3.35;74.77;99117.14;1719911;83;21595;-67
2021/01/27 11:14:34;;;;;;;17.05;13.18;;;;;;;3.33;74.85;99108.47;1720104;82;21293;-65
2021/01/27 11:17:03;;;;;;;28.32;19.90;;;;;;;3.31;74.71;99101.14;1713953;83;21151;-68
2021/01/27 11:19:38;;;;;;;13.55;10.70;;;;;;;3.31;75.34;99096.79;1713586;83;21641;-69
2021/01/27 11:22:06;;;;;;;26.23;17.20;;;;;;;3.31;74.93;99092.04;1716610;83;21609;-63
2021/01/27 11:24:37;;;;;;;16.37;12.95;;;;;;;3.34;74.84;99090.70;1713269;84;21296;-64
2021/01/27 11:27:08;;;;;;;21.37;13.08;;;;;;;3.33;74.93;99095.05;1713707;83;21606;-64
2021/01/27 11:29:42;;;;;;;17.48;11.75;;;;;;;3.26;77.02;99086.41;1718965;82;21124;-65
2021/01/27 11:32:13;;;;;;;16.02;10.93;;;;;;;3.22;76.47;99072.98;1715044;83;21159;-65
2021/01/27 11:34:41;;;;;;;15.23;11.57;;;;;;;3.29;75.35;99074.27;1717358;82;21288;-66
2021/01/27 11:37:10;;;;;;;17.17;11.33;;;;;;;3.29;75.36;99078.17;1748347;82;21155;-64
2021/01/27 11:39:38;;;;;;;17.67;13.38;;;;;;;3.29;74.65;99067.77;1696285;83;21150;-65
2021/01/27 11:42:05;;;;;;;19.15;14.15;;;;;;;3.30;74.65;99072.10;1747911;82;21135;-65
2021/01/27 11:44:32;;;;;;;14.95;10.93;;;;;;;3.29;74.77;99061.27;1669747;84;21569;-68
2021/01/27 11:47:00;;;;;;;17.87;13.13;;;;;;;3.25;74.17;99070.80;1718553;83;21207;-68
2021/01/27 11:49:28;;;;;;;21.25;16.00;;;;;;;3.21;74.42;99072.56;1732003;81;21933;-69
2021/01/27 11:51:56;;;;;;;20.95;14.78;;;;;;;3.21;74.30;99063.87;1748296;82;21591;-65
2021/01/27 11:54:24;;;;;;;36.13;23.83;;;;;;;3.16;74.71;99060.42;1748329;81;21160;-68
2021/01/27 11:56:52;;;;;;;20.55;16.62;;;;;;;3.06;76.43;99064.37;1748120;82;21147;-68
2021/01/27 11:59:20;;;;;;;22.62;13.90;;;;;;;3.11;75.41;99054.80;1747871;82;21638;-69
2021/01/27 12:01:48;;;;;;;17.70;13.35;;;;;;;3.06;75.82;99062.20;1748301;82;21171;-69
2021/01/27 12:04:15;;;;;;;20.72;14.75;;;;;;;3.14;75.61;99059.14;1739946;82;21456;-65
2021/01/27 12:06:43;;;;;;;14.85;10.20;;;;;;;3.15;75.43;99054.80;1718491;83;21179;-69
2021/01/27 12:09:11;;;;;;;20.52;14.70;;;;;;;3.06;75.30;99057.88;1739531;81;21127;-65
2021/01/27 12:11:40;;;;;;;19.92;15.45;;;;;;;3.04;75.37;99058.31;1748408;82;21195;-69
2021/01/27 12:14:08;;;;;;;18.27;13.83;;;;;;;3.03;75.32;99047.48;1743487;82;21284;-69
2021/01/27 12:16:35;;;;;;;18.65;13.75;;;;;;;3.03;75.63;99058.30;1737288;82;21182;-65
2021/01/27 12:19:03;;;;;;;20.43;15.78;;;;;;;3.04;76.06;99043.13;1742423;82;21124;-69
2021/01/27 12:21:31;;;;;;;25.05;18.35;;;;;;;3.04;76.54;99045.31;1748256;81;21555;-69
2021/01/27 12:24:01;;;;;;;21.02;14.85;;;;;;;3.02;78.17;99036.66;1748133;82;21147;-69